Saint Albans Bay, Vermont
Current Conditions -  °F | °C
As of 10:55 PM on Saturday 25 Oct 2014 (Local Time) from KFSO Reporting Station
Overcast Overcast  
Wind Chill: 51°   Ceiling: 3900
Heat Index: 51°   Visibility: 10mi
Dew Point: 49°   Wind: 3mph
Humidity: 94%   Direction: 200°SSW
Pressure: 29.44"   Gusts: NA
Location:  44.81°N, 73.14°W
Report Text: KFSO 260255Z AUTO 20003KT 10SM SCT031 OVC039 11/10 A2944 RMK AO2 T01050095
Loading
Personal Weather Stations






























Interactive Weather Map
Tropical Storm Tracking
New forecast layout! Learn more

10-Day Weather Forecast

Advertisements
Track Severe Weather on mobile